Hoopa, California
Current Conditions -  °F | °C
As of 12:53 PM on Saturday 22 Nov 2014 (Local Time) from KACV Reporting Station
Broken Clouds Broken Clouds  
Wind Chill: 59°   Ceiling: 4600
Heat Index: 59°   Visibility: 10mi
Dew Point: 51°   Wind: 9mph
Humidity: 75%   Direction: 310°NW
Pressure: 30.15"   Gusts: NA
Location:  41.05°N, 123.68°W
Report Text: KACV 222053Z AUTO 31008KT 10SM BKN046 BKN055 15/11 A3015 RMK AO2 SLP214 T01500106 51018
Loading
Personal Weather Stations






























Interactive Weather Map New forecast layout! Learn more

10-Day Weather Forecast

Advertisements
Track Severe Weather on mobile